Time;durP1;ratioP1;P1;durP2;ratioP2;P2;SDS_P1;SDS_P2;PMS_P1;PMS_P2;Temp;Humidity;BMP_temperature;BMP_pressure;BME280_temperature;BME280_humidity;BME280_pressure;Samples;Min_cycle;Max_cycle;Signal;HPM_P1;HPM_P2
2021/12/24 00:01:16;;;;;;;45.92;20.70;;;;;;;4.62;61.86;97464.78;4488002;32;20096;-77
2021/12/24 00:03:43;;;;;;;40.33;18.45;;;;;;;4.48;62.39;97472.00;4487361;32;20092;-77
2021/12/24 00:06:11;;;;;;;45.22;21.62;;;;;;;3.32;67.11;97447.72;4487763;32;20148;-77
2021/12/24 00:08:38;;;;;;;50.40;22.40;;;;;;;3.74;66.68;97456.06;4473405;32;20160;-77
2021/12/24 00:11:06;;;;;;;46.03;19.80;;;;;;;4.44;63.50;97460.16;4487505;32;20558;-77
2021/12/24 00:13:38;;;;;;;48.28;22.33;;;;;;;3.99;64.81;97442.66;4487596;32;20496;-77
2021/12/24 00:18:43;;;;;;;50.38;22.45;;;;;;;3.42;67.31;97410.94;4487545;32;20132;-77
2021/12/24 00:22:09;;;;;;;44.00;20.80;;;;;;;3.90;65.57;97436.06;4474679;32;20144;-77
2021/12/24 00:35:10;;;;;;;47.38;19.87;;;;;;;3.62;67.23;97415.56;4487613;32;20155;-77
2021/12/24 00:37:39;;;;;;;52.45;23.12;;;;;;;3.63;66.80;97404.47;4487206;32;20156;-77
2021/12/24 00:40:13;;;;;;;45.25;21.35;;;;;;;4.42;64.53;97401.47;4487540;32;20160;-77
2021/12/24 00:42:44;;;;;;;48.47;21.77;;;;;;;4.12;64.92;97385.28;4474021;32;20487;-77
2021/12/24 00:45:13;;;;;;;42.70;21.10;;;;;;;4.22;65.19;97386.69;4487171;32;20061;-77
2021/12/24 00:47:40;;;;;;;58.50;21.83;;;;;;;4.65;63.74;97393.13;4473172;32;20592;-77
2021/12/24 00:50:15;;;;;;;46.33;22.33;;;;;;;4.06;65.62;97391.41;4487407;32;20120;-77
2021/12/24 00:52:52;;;;;;;49.90;22.37;;;;;;;4.60;64.13;97393.28;4487249;32;20453;-77
2021/12/24 00:55:22;;;;;;;44.53;21.65;;;;;;;4.30;65.50;97387.34;4474406;32;20122;-76
2021/12/24 00:57:54;;;;;;;49.88;22.70;;;;;;;4.83;63.04;97386.66;4487708;32;20132;-77
2021/12/24 01:00:25;;;;;;;46.55;21.00;;;;;;;4.53;64.59;97363.69;4487792;32;20152;-76
2021/12/24 01:02:53;;;;;;;46.63;21.37;;;;;;;4.12;66.18;97369.13;4487728;32;20131;-76
2021/12/24 01:05:22;;;;;;;47.08;22.08;;;;;;;4.34;65.62;97352.31;4487137;32;20076;-77
2021/12/24 01:07:50;;;;;;;46.20;21.85;;;;;;;4.76;64.03;97365.53;4487003;32;20092;-77
2021/12/24 01:10:21;;;;;;;48.38;22.30;;;;;;;5.13;62.68;97351.63;4487161;32;20100;-77
2021/12/24 01:12:48;;;;;;;44.92;20.95;;;;;;;5.39;61.79;97340.53;4486900;32;20110;-77
2021/12/24 01:15:15;;;;;;;46.53;21.58;;;;;;;4.88;63.47;97333.66;4487142;32;20093;-77
2021/12/24 01:17:51;;;;;;;52.20;23.30;;;;;;;5.60;60.81;97347.47;4487208;32;20163;-77
2021/12/24 01:25:47;;;;;;;45.47;21.37;;;;;;;5.21;61.52;97349.66;4487130;32;20167;-77
2021/12/24 01:39:41;;;;;;;48.50;23.08;;;;;;;6.09;58.13;97325.31;4486787;32;20160;-77
2021/12/24 01:44:55;;;;;;;49.47;22.73;;;;;;;5.28;60.67;97306.78;4486761;32;20408;-77
2021/12/24 01:47:22;;;;;;;47.60;23.15;;;;;;;6.21;58.26;97306.09;4486417;32;20145;-77
2021/12/24 01:49:50;;;;;;;46.03;21.50;;;;;;;5.61;59.58;97284.34;4486456;32;20085;-77
2021/12/24 01:52:17;;;;;;;46.67;21.73;;;;;;;6.12;58.41;97273.97;4472639;32;20114;-77
2021/12/24 01:54:44;;;;;;;48.70;22.80;;;;;;;5.71;59.79;97295.94;4486251;32;20104;-77
2021/12/24 01:57:12;;;;;;;43.22;22.00;;;;;;;6.23;58.38;97292.34;4486616;32;20423;-77
2021/12/24 01:59:41;;;;;;;45.67;21.62;;;;;;;6.35;57.36;97280.78;4486447;32;20135;-77
2021/12/24 02:02:08;;;;;;;48.63;20.15;;;;;;;5.76;59.48;97288.94;4486234;32;20096;-77
2021/12/24 02:04:35;;;;;;;49.85;22.25;;;;;;;5.67;59.74;97284.12;4472411;32;20105;-77
2021/12/24 02:07:03;;;;;;;43.85;22.73;;;;;;;5.29;61.65;97296.50;4486457;32;20098;-77
2021/12/24 02:09:30;;;;;;;45.33;22.00;;;;;;;5.34;61.69;97293.81;4485890;32;20073;-77
2021/12/24 02:11:57;;;;;;;41.25;21.17;;;;;;;5.44;61.79;97284.94;4486601;32;20110;-77
2021/12/24 02:14:32;;;;;;;45.35;21.27;;;;;;;5.31;62.33;97284.50;4473531;32;20120;-77
2021/12/24 02:30:45;;;;;;;42.30;20.52;;;;;;;4.98;64.64;97226.81;4488052;32;20092;-77
2021/12/24 02:33:12;;;;;;;43.60;20.12;;;;;;;5.25;63.88;97240.41;4474241;32;20164;-77
2021/12/24 02:35:39;;;;;;;44.08;20.83;;;;;;;4.91;64.91;97210.87;4488358;32;20114;-77
2021/12/24 02:38:06;;;;;;;42.50;20.27;;;;;;;5.34;63.92;97212.78;4487923;32;20081;-77
2021/12/24 02:40:33;;;;;;;;;;;;;;;5.33;63.89;97221.38;4488597;32;20491;-77
2021/12/24 02:43:00;;;;;;;39.73;18.53;;;;;;;4.97;65.17;97226.00;4488371;32;19980;-77
2021/12/24 02:45:29;;;;;;;38.05;17.67;;;;;;;5.20;64.58;97235.44;4487989;32;20144;-77
2021/12/24 02:48:14;;;;;;;36.45;17.73;;;;;;;5.27;64.83;97218.16;4488253;32;20096;-77
2021/12/24 02:56:13;;;;;;;45.60;19.10;;;;;;;5.70;63.54;97220.03;4488338;32;20108;-77
2021/12/24 02:58:43;;;;;;;37.25;17.85;;;;;;;6.29;61.37;97219.56;4487825;32;20162;-77
2021/12/24 03:01:12;;;;;;;38.65;18.25;;;;;;;6.16;61.33;97213.22;4488281;32;20119;-77
2021/12/24 03:03:40;;;;;;;32.88;16.55;;;;;;;6.68;59.16;97230.78;4488177;32;20096;-77
2021/12/24 03:06:08;;;;;;;34.47;17.27;;;;;;;6.62;59.05;97233.59;4487963;32;20093;-77
2021/12/24 03:08:35;;;;;;;35.58;16.60;;;;;;;6.47;60.31;97216.25;4473968;32;20159;-77
2021/12/24 03:11:02;;;;;;;36.70;17.00;;;;;;;6.25;60.36;97230.81;4488173;32;20410;-77
2021/12/24 03:13:29;;;;;;;36.15;16.95;;;;;;;6.66;59.35;97235.13;4487881;32;20168;-77
2021/12/24 03:15:57;;;;;;;34.28;15.65;;;;;;;6.18;61.55;97239.63;4474035;32;20122;-77
2021/12/24 03:18:28;;;;;;;37.05;16.35;;;;;;;5.92;62.57;97236.31;4473453;32;20107;-77
2021/12/24 03:21:06;;;;;;;29.48;15.85;;;;;;;5.35;65.73;97227.25;4488120;32;20516;-77
2021/12/24 03:23:36;;;;;;;;;;;;;;;5.91;63.49;97216.72;4488365;32;20115;-77
2021/12/24 03:26:05;;;;;;;33.88;16.10;;;;;;;6.08;62.55;97216.09;4472776;32;20340;-77
2021/12/24 03:28:32;;;;;;;37.78;15.98;;;;;;;5.56;64.18;97220.53;4487917;32;20171;-77
2021/12/24 03:31:00;;;;;;;34.92;16.05;;;;;;;5.74;63.67;97209.66;4474105;32;20092;-77
2021/12/24 03:33:28;;;;;;;31.67;15.15;;;;;;;5.46;65.37;97209.81;4473421;32;20119;-77
2021/12/24 03:35:55;;;;;;;32.00;15.50;;;;;;;5.84;63.66;97201.59;4488066;32;20172;-77
2021/12/24 03:38:22;;;;;;;33.67;14.75;;;;;;;5.65;64.62;97204.03;4487815;32;20114;-77
2021/12/24 03:40:49;;;;;;;33.58;15.20;;;;;;;5.70;64.49;97213.19;4487423;32;20080;-77
2021/12/24 03:43:16;;;;;;;36.67;16.60;;;;;;;5.01;66.97;97211.41;4487789;32;20106;-77
2021/12/24 03:45:58;;;;;;;;;;;;;;;5.37;66.13;97225.47;4488274;32;20136;-77
2021/12/24 03:48:40;;;;;;;34.20;14.87;;;;;;;5.48;65.61;97212.31;4487530;32;19993;-77
2021/12/24 03:56:29;;;;;;;35.40;16.45;;;;;;;5.09;67.24;97211.97;4487875;32;20408;-77
2021/12/24 03:58:56;;;;;;;34.80;15.50;;;;;;;5.43;66.05;97203.97;4487657;32;20538;-77
2021/12/24 04:01:24;;;;;;;34.20;15.57;;;;;;;5.29;66.50;97196.75;4487511;32;20168;-77
2021/12/24 04:03:51;;;;;;;32.45;15.27;;;;;;;5.31;67.02;97199.25;4487869;32;20089;-77
2021/12/24 04:06:19;;;;;;;37.63;15.50;;;;;;;5.21;67.22;97196.22;4473551;32;20121;-77
2021/12/24 04:08:46;;;;;;;34.03;15.63;;;;;;;5.31;67.28;97189.84;4487216;32;20103;-77
2021/12/24 04:11:13;;;;;;;28.35;12.57;;;;;;;5.36;67.29;97184.59;4487669;32;20139;-77
2021/12/24 04:13:40;;;;;;;31.98;15.38;;;;;;;5.35;67.24;97178.66;4487651;32;20753;-77
2021/12/24 04:16:07;;;;;;;34.92;15.02;;;;;;;5.21;68.00;97186.00;4487484;32;20417;-77
2021/12/24 04:26:39;;;;;;;31.05;14.50;;;;;;;5.59;66.33;97171.81;4487759;32;20096;-77
2021/12/24 04:29:07;;;;;;;28.30;12.93;;;;;;;5.46;66.75;97179.09;4487187;32;20166;-76
2021/12/24 04:31:45;;;;;;;32.05;13.27;;;;;;;5.32;67.20;97167.69;4487733;32;20136;-77
2021/12/24 04:34:13;;;;;;;31.87;13.23;;;;;;;5.17;67.91;97169.91;4487615;32;20173;-77
2021/12/24 04:39:42;;;;;;;35.65;14.80;;;;;;;5.27;67.63;97159.34;4487449;32;20390;-76
2021/12/24 05:01:48;;;;;;;27.60;13.15;;;;;;;5.66;65.17;97142.53;4475492;32;20064;-76
2021/12/24 05:04:16;;;;;;;28.42;12.82;;;;;;;5.88;64.26;97145.13;4487082;32;20076;-77
2021/12/24 05:06:52;;;;;;;29.73;12.52;;;;;;;5.93;64.10;97129.59;4487292;32;20108;-77
2021/12/24 05:09:23;;;;;;;23.73;12.13;;;;;;;5.77;64.36;97129.34;4487108;32;20113;-77
2021/12/24 05:11:50;;;;;;;27.70;12.13;;;;;;;5.72;64.58;97126.94;4487016;32;20176;-77
2021/12/24 05:14:17;;;;;;;25.60;12.30;;;;;;;5.80;64.62;97121.53;4486866;32;20125;-77
2021/12/24 05:16:50;;;;;;;28.60;11.73;;;;;;;6.16;63.54;97126.97;4487277;32;20089;-77
2021/12/24 05:22:03;;;;;;;26.40;11.38;;;;;;;5.81;64.88;97118.91;4487378;32;20084;-77
2021/12/24 05:24:30;;;;;;;26.42;12.05;;;;;;;5.96;64.51;97129.50;4472608;32;20397;-77
2021/12/24 05:26:58;;;;;;;;;;;;;;;6.03;64.55;97136.88;4487311;32;20128;-77
2021/12/24 05:29:25;;;;;;;30.88;12.98;;;;;;;5.91;65.20;97136.50;4486880;32;20106;-77
2021/12/24 05:31:53;;;;;;;32.05;13.35;;;;;;;6.03;64.87;97146.28;4486844;32;20151;-77
2021/12/24 05:34:20;;;;;;;26.33;12.52;;;;;;;6.14;63.87;97138.16;4472898;32;20148;-77
2021/12/24 05:36:49;;;;;;;29.63;11.98;;;;;;;6.35;63.52;97157.81;4486943;32;20406;-77
2021/12/24 05:39:17;;;;;;;25.77;11.93;;;;;;;6.87;61.52;97146.25;4486457;32;20144;-77
2021/12/24 05:41:45;;;;;;;27.73;11.90;;;;;;;6.66;62.41;97152.28;4487028;32;20134;-77
2021/12/24 05:44:16;;;;;;;29.25;12.77;;;;;;;6.66;62.12;97137.72;4486763;32;20084;-77
2021/12/24 05:46:45;;;;;;;24.83;11.82;;;;;;;7.50;58.91;97138.41;4486485;32;20140;-77
2021/12/24 05:49:13;;;;;;;27.75;12.57;;;;;;;7.36;58.92;97144.16;4473589;32;20117;-77
2021/12/24 05:51:40;;;;;;;27.80;12.20;;;;;;;7.17;59.41;97139.00;4488813;32;20080;-77
2021/12/24 05:54:07;;;;;;;25.08;11.57;;;;;;;7.32;59.17;97142.59;4488180;32;20049;-77
2021/12/24 05:56:35;;;;;;;26.40;11.32;;;;;;;7.34;59.07;97145.97;4488593;32;20404;-77
2021/12/24 05:59:03;;;;;;;25.25;11.32;;;;;;;7.59;58.63;97130.28;4488586;32;20139;-77
2021/12/24 06:01:30;;;;;;;24.90;11.95;;;;;;;7.60;58.69;97143.94;4488392;32;20171;-77
2021/12/24 06:03:57;;;;;;;26.92;11.00;;;;;;;7.44;59.21;97146.34;4488647;32;20139;-77
2021/12/24 06:06:24;;;;;;;27.83;12.57;;;;;;;7.56;58.71;97147.56;4488603;32;20487;-77
2021/12/24 06:08:51;;;;;;;;;;;;;;;7.14;60.40;97136.56;4474256;32;20175;-77
2021/12/24 06:11:18;;;;;;;26.33;10.88;;;;;;;7.21;59.53;97149.94;4488962;32;20016;-77
2021/12/24 06:13:46;;;;;;;25.17;11.48;;;;;;;7.34;59.54;97140.00;4488247;32;20494;-77
2021/12/24 06:16:13;;;;;;;27.58;12.43;;;;;;;7.39;59.10;97143.19;4488614;32;20428;-77
2021/12/24 06:18:41;;;;;;;27.10;12.85;;;;;;;7.44;59.56;97138.66;4488169;32;20100;-77
2021/12/24 06:21:08;;;;;;;26.75;12.88;;;;;;;7.61;58.72;97156.72;4488170;32;20168;-77
2021/12/24 06:23:37;;;;;;;30.10;12.50;;;;;;;8.10;57.18;97157.87;4488394;32;20510;-77
2021/12/24 06:26:06;;;;;;;29.35;12.90;;;;;;;8.04;57.26;97162.44;4488639;32;20160;-77
2021/12/24 06:28:35;;;;;;;27.10;12.45;;;;;;;7.75;57.91;97159.47;4474239;32;20103;-77
2021/12/24 06:31:03;;;;;;;28.17;11.80;;;;;;;7.61;58.29;97153.31;4488748;32;20458;-77
2021/12/24 06:33:30;;;;;;;27.48;12.02;;;;;;;7.76;57.83;97161.16;4488472;32;20085;-77
2021/12/24 06:35:58;;;;;;;28.65;12.27;;;;;;;8.79;54.93;97157.13;4474074;32;20168;-77
2021/12/24 06:38:25;;;;;;;25.25;11.77;;;;;;;8.24;56.39;97156.38;4488447;32;20159;-77
2021/12/24 06:40:54;;;;;;;25.05;11.57;;;;;;;8.05;57.02;97139.25;4488673;32;20115;-77
2021/12/24 06:43:21;;;;;;;25.95;11.70;;;;;;;8.65;55.37;97154.41;4488078;32;20163;-77
2021/12/24 06:45:49;;;;;;;27.13;12.10;;;;;;;7.51;59.05;97158.03;4488581;32;20108;-77
2021/12/24 06:48:17;;;;;;;24.33;11.15;;;;;;;8.43;57.00;97166.66;4488328;32;20506;-77
2021/12/24 06:50:44;;;;;;;31.33;12.15;;;;;;;8.49;56.56;97171.47;4488024;32;20404;-77
2021/12/24 06:53:11;;;;;;;29.80;12.30;;;;;;;8.47;56.65;97169.00;4488254;32;20111;-77
2021/12/24 06:55:38;;;;;;;25.65;11.63;;;;;;;8.64;54.96;97163.88;4488398;32;20132;-77
2021/12/24 06:58:05;;;;;;;23.35;10.43;;;;;;;9.05;54.56;97158.41;4487952;32;20084;-77
2021/12/24 07:00:33;;;;;;;24.60;10.65;;;;;;;8.94;54.69;97160.69;4488315;32;20065;-77
2021/12/24 07:03:00;;;;;;;22.23;9.35;;;;;;;8.45;56.34;97147.66;4488007;32;20133;-77
2021/12/24 07:05:27;;;;;;;23.25;10.55;;;;;;;8.59;55.86;97150.41;4488383;32;20149;-77
2021/12/24 07:07:53;;;;;;;;;;;;;;;8.60;55.96;97146.09;4488724;32;20404;-77
2021/12/24 07:10:20;;;;;;;25.17;10.23;;;;;;;8.38;56.68;97148.88;4488040;32;19998;-77
2021/12/24 07:12:47;;;;;;;;;;;;;;;8.32;56.95;97146.56;4488517;32;20085;-77
2021/12/24 07:15:16;;;;;;;23.85;10.02;;;;;;;8.41;56.80;97138.47;4488248;32;20023;-77
2021/12/24 07:17:44;;;;;;;25.80;10.18;;;;;;;8.19;57.96;97161.75;4487958;32;20104;-77
2021/12/24 07:20:11;;;;;;;23.87;10.23;;;;;;;8.03;58.50;97143.63;4473930;32;20160;-77
2021/12/24 07:22:38;;;;;;;25.35;10.10;;;;;;;8.09;57.97;97147.66;4488130;32;20143;-77
2021/12/24 07:25:06;;;;;;;22.92;10.05;;;;;;;8.12;58.19;97138.06;4487673;32;20140;-77
2021/12/24 07:27:34;;;;;;;23.87;11.35;;;;;;;8.21;57.82;97130.84;4488156;32;20144;-77
2021/12/24 07:30:02;;;;;;;22.85;9.27;;;;;;;8.52;57.42;97122.50;4487796;32;20084;-77
2021/12/24 07:32:29;;;;;;;24.08;9.80;;;;;;;8.57;57.05;97130.81;4487849;32;20098;-77
2021/12/24 07:34:56;;;;;;;21.12;8.93;;;;;;;8.87;56.76;97131.88;4487983;32;20140;-77
2021/12/24 07:37:23;;;;;;;23.55;9.48;;;;;;;9.94;52.90;97115.91;4488159;32;20168;-77
2021/12/24 07:39:52;;;;;;;22.50;9.68;;;;;;;10.19;52.00;97122.28;4487602;32;20096;-77
2021/12/24 07:42:19;;;;;;;20.35;8.38;;;;;;;9.90;52.33;97117.00;4488011;32;20114;-77
2021/12/24 07:44:46;;;;;;;20.98;8.68;;;;;;;9.96;52.68;97123.56;4487950;32;20093;-77
2021/12/24 07:47:27;;;;;;;21.87;9.10;;;;;;;10.34;51.63;97126.63;4487843;32;20226;-77
2021/12/24 07:50:04;;;;;;;18.45;8.50;;;;;;;10.26;51.59;97128.81;4475225;32;20163;-77
2021/12/24 07:52:31;;;;;;;22.75;8.85;;;;;;;9.92;53.03;97120.31;4487800;32;20072;-77
2021/12/24 07:54:58;;;;;;;18.75;8.35;;;;;;;10.02;53.03;97124.06;4487774;32;20113;-77
2021/12/24 07:57:45;;;;;;;18.25;8.52;;;;;;;10.02;52.36;97123.22;4487793;32;20150;-77
2021/12/24 08:00:13;;;;;;;18.02;8.20;;;;;;;10.08;52.47;97121.13;4487572;32;20100;-77
2021/12/24 08:02:41;;;;;;;20.00;8.23;;;;;;;10.10;52.37;97106.44;4487808;32;20088;-77
2021/12/24 08:05:08;;;;;;;19.50;8.63;;;;;;;10.03;52.41;97117.16;4487676;32;20084;-77
2021/12/24 08:07:35;;;;;;;20.77;8.35;;;;;;;9.79;53.38;97116.78;4473501;32;20118;-77
2021/12/24 08:10:03;;;;;;;19.67;7.75;;;;;;;9.70;53.83;97114.69;4488041;32;20462;-77
2021/12/24 08:12:29;;;;;;;20.90;8.55;;;;;;;9.98;52.97;97114.81;4473119;32;20144;-77
2021/12/24 08:14:56;;;;;;;19.70;8.27;;;;;;;9.99;52.94;97126.78;4487547;32;20144;-77
2021/12/24 08:17:23;;;;;;;16.52;6.87;;;;;;;10.13;52.66;97120.91;4473836;32;20513;-77
2021/12/24 08:19:50;;;;;;;18.42;7.37;;;;;;;10.34;52.02;97111.16;4487487;32;20100;-77
2021/12/24 08:22:17;;;;;;;19.12;7.12;;;;;;;10.27;52.33;97109.84;4487857;32;20139;-77
2021/12/24 08:24:44;;;;;;;18.37;8.35;;;;;;;9.70;54.24;97107.78;4474838;32;20115;-77
2021/12/24 08:27:11;;;;;;;18.08;8.18;;;;;;;9.64;54.71;97105.53;4488528;32;20097;-77
2021/12/24 08:29:38;;;;;;;18.37;7.75;;;;;;;9.74;54.33;97100.72;4488039;32;20204;-76
2021/12/24 08:32:06;;;;;;;19.33;7.40;;;;;;;9.98;53.22;97101.09;4487910;32;20084;-77
2021/12/24 08:34:33;;;;;;;18.33;7.93;;;;;;;9.77;54.27;97098.78;4487467;32;20110;-77
2021/12/24 08:37:01;;;;;;;18.27;7.80;;;;;;;10.28;52.70;97096.03;4487617;32;20127;-77
2021/12/24 08:39:28;;;;;;;16.90;7.05;;;;;;;9.95;53.87;97109.84;4487361;32;20414;-77
2021/12/24 08:41:55;;;;;;;18.50;6.65;;;;;;;9.73;54.18;97107.63;4487340;32;20098;-77
2021/12/24 08:44:25;;;;;;;15.73;6.53;;;;;;;9.44;55.58;97114.31;4473417;32;20112;-77
2021/12/24 08:46:53;;;;;;;18.45;6.97;;;;;;;9.32;56.21;97114.13;4487598;32;20140;-77
2021/12/24 08:49:21;;;;;;;19.27;7.43;;;;;;;9.34;56.57;97107.97;4487062;32;20092;-77
2021/12/24 08:51:49;;;;;;;16.30;6.87;;;;;;;9.55;56.14;97116.31;4487468;32;20095;-77
2021/12/24 08:54:16;;;;;;;18.17;6.47;;;;;;;9.20;56.92;97118.19;4487435;32;20085;-77
2021/12/24 08:56:43;;;;;;;16.90;6.80;;;;;;;9.46;56.26;97115.09;4487147;32;20097;-77
2021/12/24 08:59:10;;;;;;;16.60;6.05;;;;;;;10.00;54.72;97107.88;4487236;32;20126;-77
2021/12/24 09:01:38;;;;;;;16.17;6.53;;;;;;;9.61;55.80;97104.87;4487486;32;20092;-77
2021/12/24 09:04:05;;;;;;;16.12;6.53;;;;;;;9.87;55.17;97127.47;4486855;32;20439;-77
2021/12/24 09:06:32;;;;;;;18.40;7.28;;;;;;;10.11;54.69;97123.56;4473278;32;20123;-77
2021/12/24 09:08:59;;;;;;;14.52;6.95;;;;;;;10.56;53.37;97127.06;4487121;32;20093;-77
2021/12/24 09:11:26;;;;;;;19.65;7.50;;;;;;;10.59;52.97;97123.47;4487148;32;20136;-77
2021/12/24 09:13:53;;;;;;;17.23;7.15;;;;;;;11.28;51.23;97115.94;4487185;32;20856;-77
2021/12/24 09:16:20;;;;;;;21.15;8.18;;;;;;;11.62;50.75;97120.78;4486791;32;20096;-77
2021/12/24 09:18:54;;;;;;;20.55;8.02;;;;;;;11.61;50.27;97127.72;4472752;32;20454;-77
2021/12/24 09:21:23;;;;;;;15.07;7.20;;;;;;;11.62;49.97;97125.97;4455980;32;20093;-77
2021/12/24 09:23:50;;;;;;;19.55;7.32;;;;;;;11.20;51.15;97117.31;4454220;32;20164;-77
2021/12/24 09:26:31;;;;;;;17.17;7.35;;;;;;;11.23;51.35;97117.94;4455962;32;20101;-77
2021/12/24 09:28:59;;;;;;;16.40;7.20;;;;;;;11.64;50.54;97118.94;4455622;32;20164;-77
2021/12/24 09:31:26;;;;;;;15.45;6.57;;;;;;;11.91;49.77;97119.84;4455431;32;20099;-77
2021/12/24 09:33:54;;;;;;;18.75;8.05;;;;;;;12.01;49.38;97112.31;4455766;32;20140;-77
2021/12/24 09:36:27;;;;;;;18.20;7.18;;;;;;;11.73;49.90;97118.38;4455605;32;20089;-77
2021/12/24 09:39:01;;;;;;;18.65;7.97;;;;;;;11.32;51.39;97115.75;4455217;32;20474;-77
2021/12/24 09:41:29;;;;;;;17.55;7.35;;;;;;;11.35;51.73;97111.22;4455725;32;20156;-77
2021/12/24 09:43:58;;;;;;;18.08;7.43;;;;;;;11.43;51.49;97111.59;4455559;32;20097;-77
2021/12/24 09:46:26;;;;;;;16.17;7.07;;;;;;;11.19;52.25;97103.56;4455347;32;20494;-77
2021/12/24 09:48:54;;;;;;;19.45;7.80;;;;;;;11.51;51.76;97099.03;4454384;32;20085;-77
2021/12/24 09:51:25;;;;;;;18.17;7.45;;;;;;;11.86;50.98;97090.88;4455291;32;20100;-77
2021/12/24 09:53:53;;;;;;;17.75;7.45;;;;;;;11.66;51.39;97094.66;4455524;32;20424;-77
2021/12/24 09:56:21;;;;;;;17.20;7.03;;;;;;;11.47;51.88;97088.97;4455622;32;20100;-77
2021/12/24 09:58:49;;;;;;;17.23;7.32;;;;;;;11.54;51.62;97090.25;4455130;32;20107;-77
2021/12/24 10:01:42;;;;;;;18.35;7.00;;;;;;;11.27;52.68;97078.12;4455605;32;20472;-77
2021/12/24 10:04:12;;;;;;;16.52;7.43;;;;;;;11.70;51.73;97084.97;4455494;32;20101;-77
2021/12/24 10:06:45;;;;;;;16.25;6.82;;;;;;;11.27;53.12;97090.19;4455324;32;20101;-77
2021/12/24 10:09:12;;;;;;;15.07;7.20;;;;;;;11.47;52.88;97088.97;4454068;32;20149;-77
2021/12/24 10:11:47;;;;;;;16.62;7.05;;;;;;;11.88;51.78;97083.84;4455341;32;20116;-77
2021/12/24 10:14:16;;;;;;;15.52;6.80;;;;;;;11.54;52.58;97069.59;4454928;32;20153;-77
2021/12/24 10:16:45;;;;;;;17.45;7.05;;;;;;;11.52;52.55;97079.19;4455264;32;20132;-77
2021/12/24 10:19:13;;;;;;;19.98;7.35;;;;;;;11.09;54.33;97078.41;4458947;32;20126;-77
2021/12/24 10:21:42;;;;;;;19.58;7.62;;;;;;;11.61;53.39;97076.03;4486340;32;20092;-77
2021/12/24 10:24:09;;;;;;;16.83;6.80;;;;;;;11.89;52.47;97077.75;4486301;32;20156;-77
2021/12/24 10:26:38;;;;;;;;;;;;;;;12.03;51.44;97064.78;4486393;32;20155;-77
2021/12/24 10:29:19;;;;;;;16.58;6.78;;;;;;;11.56;53.04;97067.72;4486235;32;20024;-77
2021/12/24 10:31:51;;;;;;;17.50;6.97;;;;;;;11.94;52.33;97074.87;4486300;32;20336;-77
2021/12/24 10:34:20;;;;;;;16.67;6.78;;;;;;;12.06;51.38;97072.34;4486184;32;20135;-77
2021/12/24 10:36:57;;;;;;;19.70;7.60;;;;;;;12.25;51.35;97076.34;4488477;32;20167;-77
2021/12/24 10:39:41;;;;;;;;;;;;;;;12.03;51.80;97072.53;4488746;32;20136;-77
2021/12/24 10:42:21;;;;;;;18.85;7.97;;;;;;;12.54;50.47;97051.94;4488463;32;19980;-77
2021/12/24 10:44:50;;;;;;;17.77;7.47;;;;;;;12.88;49.71;97047.12;4474316;32;20103;-77
2021/12/24 10:47:19;;;;;;;19.33;7.95;;;;;;;12.67;50.33;97041.63;4488020;32;20453;-77
2021/12/24 10:50:04;;;;;;;15.23;6.90;;;;;;;12.79;49.90;97045.97;4488379;32;20100;-77
2021/12/24 10:52:56;;;;;;;16.33;7.50;;;;;;;12.53;50.73;97044.28;4488442;32;20076;-77
2021/12/24 10:55:36;;;;;;;17.37;7.37;;;;;;;12.48;50.73;97042.03;4473983;32;20104;-77
2021/12/24 10:58:05;;;;;;;18.27;7.62;;;;;;;12.51;50.71;97056.50;4488437;32;20104;-77
2021/12/24 11:00:38;;;;;;;20.50;8.40;;;;;;;12.48;50.64;97047.19;4488342;32;20147;-77
2021/12/24 11:03:10;;;;;;;17.67;7.78;;;;;;;12.56;50.76;97047.53;4487973;32;20096;-77
2021/12/24 11:05:44;;;;;;;20.60;8.13;;;;;;;12.41;51.00;97036.41;4488327;32;20101;-77
2021/12/24 11:08:14;;;;;;;19.58;8.50;;;;;;;12.25;51.65;97047.88;4488183;32;20213;-77
2021/12/24 11:10:44;;;;;;;20.85;8.30;;;;;;;12.45;50.94;97047.41;4487993;32;20167;-77
2021/12/24 11:13:14;;;;;;;18.80;8.20;;;;;;;12.75;50.08;97047.09;4488125;32;20124;-77
2021/12/24 11:15:51;;;;;;;21.45;7.78;;;;;;;12.68;50.15;97044.13;4487784;32;20106;-77
2021/12/24 11:18:24;;;;;;;20.02;8.65;;;;;;;12.49;50.95;97054.03;4488144;32;20092;-77
2021/12/24 11:21:02;;;;;;;22.00;9.02;;;;;;;12.72;50.70;97045.56;4470943;32;20103;-77
2021/12/24 11:23:31;;;;;;;22.50;9.32;;;;;;;13.42;48.82;97049.47;4472109;32;20132;-77
2021/12/24 11:26:12;;;;;;;19.25;8.13;;;;;;;13.24;49.13;97047.22;4472363;32;20088;-77
2021/12/24 11:28:40;;;;;;;19.45;7.72;;;;;;;13.45;48.37;97044.88;4472459;32;20160;-77
2021/12/24 11:31:10;;;;;;;15.65;6.78;;;;;;;12.99;49.52;97042.03;4471910;32;20171;-77
2021/12/24 11:33:42;;;;;;;18.20;5.93;;;;;;;12.99;49.38;97040.28;4472415;32;20149;-77
2021/12/24 11:36:11;;;;;;;15.82;6.70;;;;;;;13.17;49.16;97034.75;4472645;32;20145;-77
2021/12/24 11:38:53;;;;;;;15.68;6.65;;;;;;;13.10;49.13;97039.53;4471964;32;20148;-77
2021/12/24 11:41:25;;;;;;;14.82;6.70;;;;;;;13.26;48.80;97034.97;4471196;32;20119;-77
2021/12/24 11:43:54;;;;;;;16.08;6.65;;;;;;;13.73;47.60;97023.03;4470890;32;20109;-77
2021/12/24 11:46:23;;;;;;;14.35;6.15;;;;;;;14.15;46.45;97024.28;4471503;32;20105;-78
2021/12/24 11:48:52;;;;;;;17.15;7.25;;;;;;;14.19;46.16;97020.53;4472089;32;20104;-77
2021/12/24 11:51:22;;;;;;;15.45;6.85;;;;;;;14.17;45.70;97024.19;4470696;32;20093;-77
2021/12/24 11:53:51;;;;;;;19.05;7.03;;;;;;;13.60;47.54;97028.25;4471270;32;20094;-77
2021/12/24 11:56:21;;;;;;;14.02;6.37;;;;;;;13.30;48.51;97025.25;4472335;32;20404;-77
2021/12/24 11:58:56;;;;;;;14.52;6.37;;;;;;;13.52;48.10;97022.81;4471850;32;20109;-77
2021/12/24 12:01:28;;;;;;;15.35;6.93;;;;;;;13.58;48.28;97027.53;4472383;32;20482;-77
2021/12/24 12:03:57;;;;;;;15.07;6.50;;;;;;;13.42;48.55;97026.16;4471293;32;20435;-77
2021/12/24 12:06:24;;;;;;;18.45;7.22;;;;;;;13.46;48.94;97020.63;4472533;32;20145;-77
2021/12/24 12:08:53;;;;;;;14.87;6.97;;;;;;;13.34;49.21;97028.44;4472662;32;20115;-77
2021/12/24 12:11:30;;;;;;;16.23;7.25;;;;;;;13.10;49.88;97015.41;4472308;32;20155;-76
2021/12/24 12:14:01;;;;;;;14.38;6.78;;;;;;;13.36;49.31;97016.19;4472333;32;20145;-77
2021/12/24 12:16:48;;;;;;;15.00;6.30;;;;;;;13.49;48.87;97017.00;4472191;32;20145;-77
2021/12/24 12:19:32;;;;;;;15.55;6.70;;;;;;;12.92;50.23;96997.59;4473988;32;20088;-77
2021/12/24 12:22:14;;;;;;;15.52;6.62;;;;;;;12.97;50.18;96992.97;4487760;32;20140;-77
2021/12/24 12:24:59;;;;;;;17.87;6.68;;;;;;;13.10;49.66;96987.75;4487774;32;20080;-77
2021/12/24 12:27:39;;;;;;;16.00;7.07;;;;;;;13.21;49.27;96979.25;4487401;32;20108;-77
2021/12/24 12:30:24;;;;;;;15.90;7.50;;;;;;;13.51;48.63;96984.88;4487575;32;20116;-77
2021/12/24 12:33:07;;;;;;;15.60;7.18;;;;;;;13.35;48.88;96971.34;4487447;32;20564;-77
2021/12/24 12:35:36;;;;;;;15.68;7.03;;;;;;;13.93;47.46;96967.16;4487618;32;20139;-77
2021/12/24 12:38:23;;;;;;;16.95;7.30;;;;;;;13.81;47.85;96966.25;4487410;32;20180;-77
2021/12/24 12:40:50;;;;;;;17.85;6.97;;;;;;;13.73;48.02;96941.84;4487227;32;20103;-77
2021/12/24 12:43:20;;;;;;;16.17;7.25;;;;;;;14.23;46.77;96951.06;4487443;32;20143;-77
2021/12/24 12:45:48;;;;;;;15.82;7.50;;;;;;;13.99;47.35;96960.69;4487474;32;20163;-77
2021/12/24 12:48:22;;;;;;;17.55;7.60;;;;;;;14.30;46.76;96969.59;4486934;32;20096;-77
2021/12/24 12:50:55;;;;;;;15.98;7.18;;;;;;;13.89;48.00;96965.72;4487390;32;20769;-77
2021/12/24 12:53:28;;;;;;;17.20;7.28;;;;;;;14.31;47.00;96977.28;4487496;32;20163;-77
2021/12/24 12:56:12;;;;;;;15.07;7.03;;;;;;;14.02;47.90;96973.41;4487173;32;20397;-77
2021/12/24 12:58:42;;;;;;;15.98;6.97;;;;;;;13.85;48.72;96977.25;4472950;32;20188;-77
2021/12/24 13:01:18;;;;;;;14.70;6.90;;;;;;;13.78;49.12;96976.84;4487081;32;20106;-77
2021/12/24 13:03:58;;;;;;;15.93;6.77;;;;;;;13.85;49.25;96985.03;4473402;32;20177;-77
2021/12/24 13:06:41;;;;;;;17.87;7.18;;;;;;;13.71;49.63;96982.59;4487287;32;20212;-77
2021/12/24 13:09:10;;;;;;;16.30;6.90;;;;;;;13.93;49.04;96979.25;4486953;32;20153;-77
2021/12/24 13:11:46;;;;;;;17.60;7.20;;;;;;;13.92;49.64;96978.44;4487136;32;20111;-77
2021/12/24 13:14:15;;;;;;;15.90;6.62;;;;;;;13.96;49.62;96976.47;4487331;32;20093;-77